Time;durP1;ratioP1;P1;durP2;ratioP2;P2;SDS_P1;SDS_P2;PMS_P1;PMS_P2;Temp;Humidity;BMP_temperature;BMP_pressure;BME280_temperature;BME280_humidity;BME280_pressure;Samples;Min_cycle;Max_cycle;Signal;HPM_P1;HPM_P2
2024/01/05 00:00:28;;;;;;;;;;;6.90;99.90;;;;;;5062318;28;19939;-77
2024/01/05 00:02:59;;;;;;;;;;;6.90;99.90;;;;;;5062975;28;19928;-78
2024/01/05 00:05:25;;;;;;;;;;;6.80;99.90;;;;;;5063227;28;19929;-78
2024/01/05 00:07:53;;;;;;;;;;;6.80;99.90;;;;;;5063369;28;19936;-77
2024/01/05 00:10:20;;;;;;;;;;;6.70;99.90;;;;;;5066469;28;19924;-78
2024/01/05 00:12:47;;;;;;;;;;;6.80;99.90;;;;;;5067619;28;19931;-77
2024/01/05 00:15:14;;;;;;;;;;;6.80;99.90;;;;;;5066440;28;19972;-78
2024/01/05 00:17:40;;;;;;;;;;;6.80;99.90;;;;;;5064540;28;19928;-77
2024/01/05 00:20:08;;;;;;;;;;;6.80;99.90;;;;;;5071153;28;19929;-78
2024/01/05 00:22:35;;;;;;;;;;;6.80;99.90;;;;;;5067741;28;20480;-78
2024/01/05 00:25:03;;;;;;;;;;;6.70;99.90;;;;;;5063327;28;19974;-77
2024/01/05 00:27:29;;;;;;;;;;;6.70;99.90;;;;;;5069633;28;19986;-78
2024/01/05 00:29:56;;;;;;;;;;;6.70;99.90;;;;;;5064684;28;20119;-78
2024/01/05 00:32:22;;;;;;;;;;;6.70;99.90;;;;;;5064630;28;20090;-77
2024/01/05 00:34:49;;;;;;;;;;;6.70;99.90;;;;;;5068846;28;20150;-78
2024/01/05 00:37:15;;;;;;;;;;;6.70;99.90;;;;;;5067038;28;19972;-78
2024/01/05 00:39:42;;;;;;;;;;;6.70;99.90;;;;;;5067955;28;25069;-77
2024/01/05 00:42:10;;;;;;;;;;;6.60;99.90;;;;;;5067907;28;19959;-78
2024/01/05 00:44:37;;;;;;;;;;;6.70;99.90;;;;;;5065874;28;19983;-78
2024/01/05 00:47:03;;;;;;;;;;;6.60;99.90;;;;;;5064468;28;25057;-77
2024/01/05 00:49:30;;;;;;;;;;;6.70;99.90;;;;;;5064420;28;20037;-78
2024/01/05 00:51:56;;;;;;;;;;;6.60;99.90;;;;;;5067872;28;25053;-79
2024/01/05 00:54:25;;;;;;;;;;;6.60;99.90;;;;;;5064143;28;20653;-77
2024/01/05 00:56:51;;;;;;;;;;;6.60;99.90;;;;;;5067068;28;25169;-78
2024/01/05 00:59:20;;;;;;;;;;;6.60;99.90;;;;;;5067112;28;19997;-78
2024/01/05 01:01:47;;;;;;;;;;;6.60;99.90;;;;;;5067415;28;20153;-78
2024/01/05 01:04:13;;;;;;;;;;;6.60;99.90;;;;;;5063894;28;19967;-78
2024/01/05 01:06:40;;;;;;;;;;;6.60;99.90;;;;;;5068190;28;19943;-78
2024/01/05 01:09:07;;;;;;;;;;;6.60;99.90;;;;;;5065705;28;19927;-78
2024/01/05 01:11:33;;;;;;;;;;;6.50;99.90;;;;;;5066899;28;19924;-78
2024/01/05 01:14:00;;;;;;;;;;;6.50;99.90;;;;;;5068979;28;19928;-77
2024/01/05 01:16:28;;;;;;;;;;;6.50;99.90;;;;;;5064732;28;19928;-79
2024/01/05 01:18:54;;;;;;;;;;;6.50;99.90;;;;;;5069072;28;19945;-77
2024/01/05 01:21:21;;;;;;;;;;;6.50;99.90;;;;;;5069037;28;19963;-77
2024/01/05 01:23:47;;;;;;;;;;;6.50;99.90;;;;;;5064286;28;19924;-78
2024/01/05 01:26:14;;;;;;;;;;;6.50;99.90;;;;;;5068376;28;19925;-78
2024/01/05 01:28:40;;;;;;;;;;;6.50;99.90;;;;;;5067334;28;19924;-77
2024/01/05 01:31:07;;;;;;;;;;;6.50;99.90;;;;;;5064153;28;19928;-78
2024/01/05 01:33:35;;;;;;;;;;;6.50;99.90;;;;;;5067407;28;19939;-78
2024/01/05 01:36:01;;;;;;;;;;;6.40;99.90;;;;;;5070310;28;19924;-77
2024/01/05 01:38:28;;;;;;;;;;;6.50;99.90;;;;;;5067898;28;19931;-77
2024/01/05 01:40:56;;;;;;;;;;;6.50;99.90;;;;;;5069455;28;19929;-78
2024/01/05 01:43:24;;;;;;;;;;;6.40;99.90;;;;;;5063379;28;19928;-78
2024/01/05 01:45:51;;;;;;;;;;;6.40;99.90;;;;;;5064444;28;19935;-77
2024/01/05 01:48:18;;;;;;;;;;;6.40;99.90;;;;;;5070776;28;19924;-78
2024/01/05 01:50:46;;;;;;;;;;;6.40;99.90;;;;;;5063084;28;20327;-78
2024/01/05 01:53:14;;;;;;;;;;;6.40;99.90;;;;;;5060300;28;20464;-77
2024/01/05 01:55:41;;;;;;;;;;;6.40;99.90;;;;;;5061983;28;19931;-78
2024/01/05 01:58:08;;;;;;;;;;;6.40;99.90;;;;;;5068817;28;20397;-78
2024/01/05 02:00:35;;;;;;;;;;;6.40;99.90;;;;;;5064795;28;19928;-78
2024/01/05 02:03:02;;;;;;;;;;;6.40;99.90;;;;;;5061634;28;19925;-78
2024/01/05 02:05:29;;;;;;;;;;;6.40;99.90;;;;;;5063970;28;19931;-77
2024/01/05 02:07:57;;;;;;;;;;;6.30;99.90;;;;;;5061684;28;19932;-78
2024/01/05 02:10:24;;;;;;;;;;;6.40;99.90;;;;;;5059200;28;19932;-78
2024/01/05 02:12:50;;;;;;;;;;;6.30;99.90;;;;;;5066013;28;19971;-76
2024/01/05 02:15:18;;;;;;;;;;;6.30;99.90;;;;;;5063440;28;20317;-78
2024/01/05 02:17:45;;;;;;;;;;;6.40;99.90;;;;;;5062917;28;20010;-78
2024/01/05 02:20:11;;;;;;;;;;;6.30;99.90;;;;;;5064873;28;19958;-78
2024/01/05 02:22:39;;;;;;;;;;;6.30;99.90;;;;;;5065850;28;19986;-78
2024/01/05 02:25:07;;;;;;;;;;;6.30;99.90;;;;;;5068004;28;20392;-77
2024/01/05 02:27:34;;;;;;;;;;;6.20;99.90;;;;;;5065978;28;19959;-78
2024/01/05 02:30:01;;;;;;;;;;;6.30;99.90;;;;;;5064363;28;19928;-78
2024/01/05 02:32:27;;;;;;;;;;;6.20;99.90;;;;;;5062597;28;19928;-77
2024/01/05 02:34:54;;;;;;;;;;;6.20;99.90;;;;;;5061497;28;19974;-78
2024/01/05 02:37:20;;;;;;;;;;;6.20;99.90;;;;;;5061761;28;20341;-77
2024/01/05 02:39:47;;;;;;;;;;;6.20;99.90;;;;;;5064980;28;20652;-78
2024/01/05 02:42:15;;;;;;;;;;;6.20;99.90;;;;;;5061022;28;19924;-77
2024/01/05 02:44:41;;;;;;;;;;;6.20;99.90;;;;;;5061797;28;20295;-78
2024/01/05 02:47:08;;;;;;;;;;;6.20;99.90;;;;;;5062408;28;19928;-78
2024/01/05 02:49:34;;;;;;;;;;;6.20;99.90;;;;;;5061926;28;20683;-79
2024/01/05 02:52:01;;;;;;;;;;;6.10;99.90;;;;;;5060916;28;19931;-78
2024/01/05 02:54:28;;;;;;;;;;;6.10;99.90;;;;;;5063269;28;19928;-77
2024/01/05 02:56:54;;;;;;;;;;;6.10;99.90;;;;;;5063872;28;19932;-77
2024/01/05 02:59:22;;;;;;;;;;;6.10;99.90;;;;;;5063884;28;20577;-78
2024/01/05 03:01:49;;;;;;;;;;;6.10;99.90;;;;;;5062423;28;20378;-78
2024/01/05 03:04:15;;;;;;;;;;;6.10;99.90;;;;;;5059102;28;20021;-78
2024/01/05 03:06:42;;;;;;;;;;;6.10;99.90;;;;;;5063709;28;19935;-77
2024/01/05 03:09:09;;;;;;;;;;;6.00;99.90;;;;;;5063292;28;19928;-78
2024/01/05 03:11:35;;;;;;;;;;;6.00;99.90;;;;;;5064410;28;19928;-77
2024/01/05 03:14:02;;;;;;;;;;;6.00;99.90;;;;;;5063773;28;19931;-78
2024/01/05 03:16:30;;;;;;;;;;;6.00;99.90;;;;;;5062451;28;19959;-78
2024/01/05 03:18:56;;;;;;;;;;;6.10;99.90;;;;;;5063446;28;20310;-78
2024/01/05 03:21:23;;;;;;;;;;;6.00;99.90;;;;;;5062102;28;19924;-79
2024/01/05 03:23:50;;;;;;;;;;;6.00;99.90;;;;;;5060405;28;19924;-77
2024/01/05 03:26:16;;;;;;;;;;;6.00;99.90;;;;;;5062288;28;19925;-78
2024/01/05 03:28:43;;;;;;;;;;;6.00;99.90;;;;;;5063339;28;19931;-78
2024/01/05 03:31:12;;;;;;;;;;;5.90;99.90;;;;;;5063425;28;19935;-77
2024/01/05 03:33:40;;;;;;;;;;;5.90;99.90;;;;;;5063570;28;20828;-78
2024/01/05 03:36:06;;;;;;;;;;;5.90;99.90;;;;;;5061512;28;19935;-78
2024/01/05 03:38:33;;;;;;;;;;;5.90;99.90;;;;;;5060068;28;19924;-78
2024/01/05 03:40:59;;;;;;;;;;;5.90;99.90;;;;;;5063321;28;20023;-78
2024/01/05 03:43:26;;;;;;;;;;;5.90;99.90;;;;;;5058100;28;19977;-79
2024/01/05 03:45:52;;;;;;;;;;;5.90;99.90;;;;;;5062353;28;19928;-77
2024/01/05 03:48:19;;;;;;;;;;;5.90;99.90;;;;;;5066665;28;19925;-78
2024/01/05 03:50:47;;;;;;;;;;;5.90;99.90;;;;;;5063008;28;19932;-78
2024/01/05 03:53:15;;;;;;;;;;;6.00;99.90;;;;;;5062942;28;19928;-78
2024/01/05 03:55:42;;;;;;;;;;;5.90;99.90;;;;;;5066310;28;20441;-78
2024/01/05 03:58:09;;;;;;;;;;;5.90;99.90;;;;;;5064664;28;19931;-77
2024/01/05 04:00:35;;;;;;;;;;;5.90;99.90;;;;;;5064684;28;20034;-77
2024/01/05 04:03:02;;;;;;;;;;;5.90;99.90;;;;;;5064696;28;19928;-78
2024/01/05 04:05:29;;;;;;;;;;;5.90;99.90;;;;;;5065038;28;19928;-77
2024/01/05 04:07:56;;;;;;;;;;;5.90;99.90;;;;;;5064568;28;19928;-77
2024/01/05 04:10:23;;;;;;;;;;;5.90;99.90;;;;;;5067857;28;19931;-78
2024/01/05 04:12:49;;;;;;;;;;;5.80;99.90;;;;;;5066754;28;19946;-77
2024/01/05 04:15:16;;;;;;;;;;;5.90;99.90;;;;;;5067170;28;20324;-77
2024/01/05 04:17:43;;;;;;;;;;;5.90;99.90;;;;;;5067367;28;20301;-77
2024/01/05 04:20:10;;;;;;;;;;;5.90;99.90;;;;;;5067373;28;19924;-76
2024/01/05 04:22:36;;;;;;;;;;;5.90;99.90;;;;;;5059409;28;20002;-78
2024/01/05 04:25:05;;;;;;;;;;;5.90;99.90;;;;;;5058362;28;19924;-78
2024/01/05 04:27:31;;;;;;;;;;;5.80;99.90;;;;;;5064817;28;19951;-78
2024/01/05 04:29:58;;;;;;;;;;;5.90;99.90;;;;;;5067980;28;20397;-78
2024/01/05 04:32:24;;;;;;;;;;;5.90;99.90;;;;;;5056329;28;19928;-78
2024/01/05 04:34:51;;;;;;;;;;;5.90;99.90;;;;;;5068361;28;19973;-79
2024/01/05 04:37:17;;;;;;;;;;;5.90;99.90;;;;;;5066970;28;19935;-78
2024/01/05 04:39:45;;;;;;;;;;;5.90;99.90;;;;;;5064130;28;19924;-78
2024/01/05 04:42:12;;;;;;;;;;;5.90;99.90;;;;;;5069791;28;19928;-78
2024/01/05 04:44:40;;;;;;;;;;;5.90;99.90;;;;;;5061239;28;20550;-78
2024/01/05 04:47:06;;;;;;;;;;;5.90;99.90;;;;;;5066623;28;19924;-78
2024/01/05 04:49:33;;;;;;;;;;;5.90;99.90;;;;;;5069777;28;19970;-77
2024/01/05 04:52:00;;;;;;;;;;;5.90;99.90;;;;;;5066776;28;20518;-79
2024/01/05 04:54:27;;;;;;;;;;;5.90;99.90;;;;;;5061714;28;19924;-78
2024/01/05 04:56:52;;;;;;;;;;;5.90;99.90;;;;;;5063976;28;19985;-77
2024/01/05 04:59:20;;;;;;;;;;;5.90;99.90;;;;;;5066463;28;19920;-78
2024/01/05 05:01:47;;;;;;;;;;;5.90;99.90;;;;;;5062317;28;19934;-78
2024/01/05 05:04:16;;;;;;;;;;;5.90;99.90;;;;;;5068824;28;19931;-78
2024/01/05 05:06:42;;;;;;;;;;;5.90;99.90;;;;;;5063708;28;19930;-78
2024/01/05 05:09:09;;;;;;;;;;;5.90;99.90;;;;;;5062324;28;19932;-78
2024/01/05 05:11:36;;;;;;;;;;;5.90;99.90;;;;;;5065128;28;20333;-78
2024/01/05 05:14:02;;;;;;;;;;;5.90;99.90;;;;;;5067611;28;19928;-78
2024/01/05 05:16:30;;;;;;;;;;;5.90;99.90;;;;;;5061609;28;19924;-78
2024/01/05 05:18:57;;;;;;;;;;;5.90;99.90;;;;;;5065044;28;19932;-78
2024/01/05 05:21:24;;;;;;;;;;;6.00;99.90;;;;;;5062176;28;19928;-77
2024/01/05 05:23:50;;;;;;;;;;;5.90;99.90;;;;;;5062468;28;19929;-77
2024/01/05 05:26:17;;;;;;;;;;;5.90;99.90;;;;;;5065138;28;19924;-77
2024/01/05 05:28:43;;;;;;;;;;;6.00;99.90;;;;;;5065407;28;19924;-77
2024/01/05 05:31:10;;;;;;;;;;;6.00;99.90;;;;;;5064714;28;19931;-77
2024/01/05 05:33:38;;;;;;;;;;;5.90;99.90;;;;;;5066738;28;19924;-77
2024/01/05 05:36:04;;;;;;;;;;;5.90;99.90;;;;;;5064362;28;19948;-78
2024/01/05 05:38:31;;;;;;;;;;;6.00;99.90;;;;;;5068943;28;19924;-77
2024/01/05 05:40:58;;;;;;;;;;;6.00;99.90;;;;;;5066761;28;19929;-77
2024/01/05 05:43:24;;;;;;;;;;;6.00;99.90;;;;;;5066003;28;19928;-78
2024/01/05 05:45:51;;;;;;;;;;;6.00;99.90;;;;;;5066240;28;19925;-78
2024/01/05 05:48:17;;;;;;;;;;;6.00;99.90;;;;;;5065646;28;19924;-78
2024/01/05 05:50:45;;;;;;;;;;;6.00;99.90;;;;;;5069234;28;19943;-78
2024/01/05 05:53:12;;;;;;;;;;;6.00;99.90;;;;;;5061473;28;19925;-77
2024/01/05 05:55:39;;;;;;;;;;;6.00;99.90;;;;;;5063302;28;19947;-78
2024/01/05 05:58:07;;;;;;;;;;;6.00;99.90;;;;;;5065058;28;19928;-78
2024/01/05 06:00:35;;;;;;;;;;;6.00;99.90;;;;;;5063115;28;19970;-77
2024/01/05 06:03:01;;;;;;;;;;;6.00;99.90;;;;;;5061442;28;19947;-77
2024/01/05 06:05:28;;;;;;;;;;;6.00;99.90;;;;;;5061620;28;20291;-78
2024/01/05 06:07:56;;;;;;;;;;;6.00;99.90;;;;;;5067049;28;19928;-77
2024/01/05 06:10:22;;;;;;;;;;;6.00;99.90;;;;;;5064597;28;19928;-78
2024/01/05 06:12:49;;;;;;;;;;;6.00;99.90;;;;;;5061007;28;19925;-78
2024/01/05 06:15:15;;;;;;;;;;;6.00;99.90;;;;;;5065379;28;19927;-78
2024/01/05 06:17:42;;;;;;;;;;;6.00;99.90;;;;;;5062013;28;19932;-78
2024/01/05 06:20:10;;;;;;;;;;;6.00;99.90;;;;;;5066074;28;20031;-78
2024/01/05 06:22:36;;;;;;;;;;;6.00;99.90;;;;;;5064441;28;19930;-78
2024/01/05 06:25:05;;;;;;;;;;;6.00;99.90;;;;;;5065954;28;19936;-77
2024/01/05 06:27:31;;;;;;;;;;;6.10;99.90;;;;;;5058343;28;19967;-77
2024/01/05 06:29:58;;;;;;;;;;;6.00;99.90;;;;;;5065604;28;19924;-77
2024/01/05 06:32:24;;;;;;;;;;;6.00;99.90;;;;;;5059887;28;19964;-77
2024/01/05 06:34:51;;;;;;;;;;;6.00;99.90;;;;;;5063765;28;19947;-79
2024/01/05 06:37:17;;;;;;;;;;;6.00;99.90;;;;;;5065415;28;20398;-78
2024/01/05 06:39:44;;;;;;;;;;;6.00;99.90;;;;;;5059380;28;19924;-78
2024/01/05 06:42:12;;;;;;;;;;;6.00;99.90;;;;;;5063223;28;19973;-81
2024/01/05 06:44:38;;;;;;;;;;;6.00;99.90;;;;;;5063959;28;19931;-78
2024/01/05 06:47:05;;;;;;;;;;;6.00;99.90;;;;;;5060274;28;20569;-64
2024/01/05 06:49:31;;;;;;;;;;;6.10;99.90;;;;;;5064588;28;20421;-64
2024/01/05 06:51:58;;;;;;;;;;;6.00;99.90;;;;;;5065375;28;19931;-64
2024/01/05 06:54:24;;;;;;;;;;;6.10;99.90;;;;;;5062165;28;19935;-65
2024/01/05 06:56:52;;;;;;;;;;;6.10;99.90;;;;;;5065020;28;20029;-64
2024/01/05 06:59:20;;;;;;;;;;;6.00;99.90;;;;;;5066375;28;20011;-65
2024/01/05 07:01:47;;;;;;;;;;;6.10;99.90;;;;;;5062671;28;19932;-64
2024/01/05 07:04:13;;;;;;;;;;;6.00;99.90;;;;;;5061652;28;19935;-64
2024/01/05 07:06:40;;;;;;;;;;;6.10;99.90;;;;;;5063266;28;19928;-64
2024/01/05 07:09:06;;;;;;;;;;;6.10;99.90;;;;;;5062894;28;19928;-64
2024/01/05 07:11:33;;;;;;;;;;;6.10;99.90;;;;;;5064837;28;19928;-65
2024/01/05 07:14:00;;;;;;;;;;;6.00;99.90;;;;;;5065920;28;19982;-64
2024/01/05 07:16:27;;;;;;;;;;;6.10;99.90;;;;;;5062697;28;19928;-64
2024/01/05 07:18:54;;;;;;;;;;;6.10;99.90;;;;;;5063390;28;19929;-77
2024/01/05 07:21:20;;;;;;;;;;;6.10;99.90;;;;;;5064455;28;20010;-77
2024/01/05 07:23:47;;;;;;;;;;;6.00;99.90;;;;;;5056190;28;19932;-77
2024/01/05 07:26:14;;;;;;;;;;;6.10;99.90;;;;;;5063754;28;20366;-77
2024/01/05 07:28:40;;;;;;;;;;;6.10;99.90;;;;;;5065996;28;19931;-77
2024/01/05 07:31:09;;;;;;;;;;;6.10;99.90;;;;;;5066462;28;19924;-77
2024/01/05 07:33:40;;;;;;;;;;;6.10;99.90;;;;;;5065523;28;20007;-77
2024/01/05 07:36:06;;;;;;;;;;;6.10;99.90;;;;;;5065328;28;19924;-77
2024/01/05 07:38:34;;;;;;;;;;;6.10;99.90;;;;;;5062257;28;19944;-77
2024/01/05 07:41:00;;;;;;;;;;;6.10;99.90;;;;;;5065045;28;19928;-77
2024/01/05 07:43:27;;;;;;;;;;;6.10;99.90;;;;;;5061600;28;19924;-77
2024/01/05 07:45:54;;;;;;;;;;;6.10;99.90;;;;;;5062775;28;19928;-77
2024/01/05 07:48:21;;;;;;;;;;;6.10;99.90;;;;;;5064584;28;19932;-77
2024/01/05 07:50:49;;;;;;;;;;;6.10;99.90;;;;;;5061769;28;20190;-77
2024/01/05 07:53:15;;;;;;;;;;;6.10;99.90;;;;;;5064235;28;20119;-77
2024/01/05 07:55:42;;;;;;;;;;;6.10;99.90;;;;;;5062995;28;20380;-77
2024/01/05 07:58:09;;;;;;;;;;;6.10;99.90;;;;;;5065375;28;20378;-77
2024/01/05 08:00:35;;;;;;;;;;;6.20;99.90;;;;;;5063475;28;19930;-77
2024/01/05 08:03:03;;;;;;;;;;;6.20;99.90;;;;;;5063758;28;19931;-77
2024/01/05 08:05:30;;;;;;;;;;;6.20;99.90;;;;;;5064311;28;20447;-77
2024/01/05 08:07:58;;;;;;;;;;;6.20;99.90;;;;;;5059583;28;19924;-76
2024/01/05 08:10:24;;;;;;;;;;;6.20;99.90;;;;;;5064698;28;20330;-77
2024/01/05 08:12:51;;;;;;;;;;;6.20;99.90;;;;;;5063186;28;19931;-77
2024/01/05 08:15:17;;;;;;;;;;;6.30;99.90;;;;;;5063616;28;20409;-77
2024/01/05 08:17:44;;;;;;;;;;;6.20;99.90;;;;;;5063246;28;19936;-76
2024/01/05 08:20:11;;;;;;;;;;;6.30;99.90;;;;;;5063290;28;19925;-77
2024/01/05 08:22:37;;;;;;;;;;;6.30;99.90;;;;;;5067036;28;19924;-76
2024/01/05 08:25:06;;;;;;;;;;;6.30;99.90;;;;;;5064659;28;19982;-76
2024/01/05 08:27:32;;;;;;;;;;;6.30;99.90;;;;;;5063066;28;19928;-76
2024/01/05 08:29:59;;;;;;;;;;;6.40;99.90;;;;;;5063038;28;20406;-77
2024/01/05 08:32:25;;;;;;;;;;;6.30;99.90;;;;;;5062817;28;19928;-77
2024/01/05 08:34:52;;;;;;;;;;;6.40;99.90;;;;;;5059100;28;19935;-77
2024/01/05 08:37:19;;;;;;;;;;;6.30;99.90;;;;;;5065821;28;19928;-76
2024/01/05 08:39:45;;;;;;;;;;;6.40;99.90;;;;;;5061023;28;20638;-77
2024/01/05 08:42:13;;;;;;;;;;;6.40;99.90;;;;;;5064392;28;19928;-77
2024/01/05 08:44:40;;;;;;;;;;;6.40;99.90;;;;;;5065419;28;20360;-77
2024/01/05 08:47:07;;;;;;;;;;;6.40;99.90;;;;;;5062692;28;19939;-77
2024/01/05 08:49:34;;;;;;;;;;;6.40;99.90;;;;;;5065518;28;19931;-76
2024/01/05 08:52:00;;;;;;;;;;;6.40;99.90;;;;;;5062818;28;20026;-76
2024/01/05 08:54:27;;;;;;;;;;;6.40;99.90;;;;;;5064908;28;19924;-76
2024/01/05 08:56:53;;;;;;;;;;;6.50;99.90;;;;;;5056076;28;20069;-76
2024/01/05 08:59:21;;;;;;;;;;;6.50;99.90;;;;;;5059134;28;19981;-75
2024/01/05 09:01:48;;;;;;;;;;;6.50;99.90;;;;;;5057291;28;19935;-75
2024/01/05 09:04:15;;;;;;;;;;;6.50;99.90;;;;;;5062281;28;19942;-75
2024/01/05 09:06:42;;;;;;;;;;;6.50;99.90;;;;;;5058946;28;19946;-75
2024/01/05 09:09:10;;;;;;;;;;;6.50;99.90;;;;;;5061511;28;19930;-75
2024/01/05 09:11:39;;;;;;;;;;;6.50;99.90;;;;;;5063584;28;19924;-75
2024/01/05 09:14:05;;;;;;;;;;;6.50;99.90;;;;;;5063677;28;20645;-75
2024/01/05 09:16:33;;;;;;;;;;;6.60;99.90;;;;;;5061114;28;19928;-74
2024/01/05 09:18:59;;;;;;;;;;;6.50;99.90;;;;;;5058343;28;19924;-75
2024/01/05 09:21:26;;;;;;;;;;;6.60;99.90;;;;;;5060881;28;20339;-75
2024/01/05 09:23:53;;;;;;;;;;;6.60;99.90;;;;;;5056205;28;20310;-75
2024/01/05 09:26:19;;;;;;;;;;;6.60;99.90;;;;;;5065048;28;19932;-76
2024/01/05 09:28:46;;;;;;;;;;;6.60;99.90;;;;;;5062200;28;19931;-76
2024/01/05 09:31:12;;;;;;;;;;;6.60;99.90;;;;;;5061928;28;19924;-76
2024/01/05 09:33:40;;;;;;;;;;;6.60;99.90;;;;;;5065417;28;19932;-76
2024/01/05 09:36:07;;;;;;;;;;;6.60;99.90;;;;;;5060135;28;19943;-76
2024/01/05 09:38:34;;;;;;;;;;;6.60;99.90;;;;;;5062483;28;19935;-77
2024/01/05 09:41:02;;;;;;;;;;;6.70;99.90;;;;;;5060712;28;19935;-77
2024/01/05 09:43:28;;;;;;;;;;;6.70;99.90;;;;;;5062805;28;19939;-77
2024/01/05 09:45:56;;;;;;;;;;;6.70;99.90;;;;;;5058599;28;19928;-76
2024/01/05 09:48:24;;;;;;;;;;;6.70;99.90;;;;;;5062112;28;19924;-76
2024/01/05 09:50:53;;;;;;;;;;;6.70;99.90;;;;;;5063356;28;19983;-76
2024/01/05 09:53:20;;;;;;;;;;;6.70;99.90;;;;;;5061481;28;20351;-76
2024/01/05 09:55:47;;;;;;;;;;;6.70;99.90;;;;;;5062119;28;20002;-76
2024/01/05 09:58:14;;;;;;;;;;;6.80;99.90;;;;;;5060231;28;19931;-76
2024/01/05 10:00:42;;;;;;;;;;;6.80;99.90;;;;;;5059578;28;20007;-76
2024/01/05 10:03:09;;;;;;;;;;;6.80;99.90;;;;;;5060564;28;19966;-76
2024/01/05 10:05:36;;;;;;;;;;;6.80;99.90;;;;;;5061708;28;19939;-76
2024/01/05 10:08:04;;;;;;;;;;;6.80;99.90;;;;;;5060262;28;19931;-77
2024/01/05 10:10:47;;;;;;;;;;;6.80;99.90;;;;;;5060627;28;20012;-76
2024/01/05 10:13:14;;;;;;;;;;;6.90;99.90;;;;;;5062615;28;19954;-76
2024/01/05 10:15:56;;;;;;;;;;;6.90;99.90;;;;;;5061814;28;20027;-76
2024/01/05 10:18:23;;;;;;;;;;;6.90;99.90;;;;;;5055803;28;19924;-76
2024/01/05 10:20:50;;;;;;;;;;;6.90;99.90;;;;;;5060917;28;19959;-76
2024/01/05 10:23:18;;;;;;;;;;;6.90;99.90;;;;;;5059074;28;19932;-77
2024/01/05 10:25:46;;;;;;;;;;;7.00;99.90;;;;;;5057100;28;20011;-76
2024/01/05 10:28:24;;;;;;;;;;;7.00;99.90;;;;;;5060930;28;20092;-76
2024/01/05 10:30:51;;;;;;;;;;;7.00;99.90;;;;;;5062182;28;19924;-76
2024/01/05 10:33:18;;;;;;;;;;;7.00;99.90;;;;;;5061908;28;20045;-76
2024/01/05 10:35:45;;;;;;;;;;;7.00;99.90;;;;;;5056001;28;19924;-77
2024/01/05 10:38:13;;;;;;;;;;;7.10;99.90;;;;;;5059478;28;19970;-76
2024/01/05 10:40:41;;;;;;;;;;;7.10;99.90;;;;;;5063392;28;19939;-77
2024/01/05 10:43:09;;;;;;;;;;;7.10;99.90;;;;;;5061621;28;20396;-76
2024/01/05 10:45:37;;;;;;;;;;;7.10;99.90;;;;;;5060419;28;19971;-76
2024/01/05 10:48:04;;;;;;;;;;;7.20;99.90;;;;;;5057969;28;20553;-78
2024/01/05 10:50:33;;;;;;;;;;;7.20;99.90;;;;;;5061037;28;19924;-76
2024/01/05 10:53:00;;;;;;;;;;;7.20;99.90;;;;;;5060829;28;19928;-75
2024/01/05 10:55:27;;;;;;;;;;;7.20;99.90;;;;;;5062760;28;20301;-76
2024/01/05 10:57:55;;;;;;;;;;;7.20;99.90;;;;;;5052272;28;19935;-76
2024/01/05 11:00:24;;;;;;;;;;;7.20;99.90;;;;;;5060344;28;19924;-76
2024/01/05 11:02:51;;;;;;;;;;;7.30;99.90;;;;;;5058454;28;19924;-76
2024/01/05 11:05:18;;;;;;;;;;;7.30;99.90;;;;;;5061023;28;20334;-75
2024/01/05 11:07:45;;;;;;;;;;;7.30;99.90;;;;;;5055006;28;20410;-76
2024/01/05 11:10:20;;;;;;;;;;;7.30;99.90;;;;;;5054543;28;19931;-76
2024/01/05 11:12:56;;;;;;;;;;;7.30;99.90;;;;;;5059663;28;19975;-76
2024/01/05 11:15:31;;;;;;;;;;;7.30;99.90;;;;;;5062102;28;20421;-76
2024/01/05 11:18:05;;;;;;;;;;;7.30;99.90;;;;;;5061140;28;19924;-76
2024/01/05 11:20:39;;;;;;;;;;;7.40;99.90;;;;;;5060265;28;19924;-76
2024/01/05 11:23:08;;;;;;;;;;;7.40;99.90;;;;;;5055395;28;19932;-76
2024/01/05 11:25:35;;;;;;;;;;;7.40;99.90;;;;;;5052315;28;20019;-79
2024/01/05 11:28:02;;;;;;;;;;;7.40;99.90;;;;;;5059842;28;19939;-78
2024/01/05 11:30:40;;;;;;;;;;;7.50;99.90;;;;;;5060840;28;20440;-79
2024/01/05 11:33:07;;;;;;;;;;;7.40;99.90;;;;;;5060856;28;20040;-81
2024/01/05 11:35:51;;;;;;;;;;;7.40;99.90;;;;;;5065170;28;19933;-80
2024/01/05 11:38:24;;;;;;;;;;;7.50;99.90;;;;;;5060952;28;19989;-84
2024/01/05 11:40:50;;;;;;;;;;;7.50;99.90;;;;;;5062072;28;19931;-80
2024/01/05 11:43:35;;;;;;;;;;;7.50;99.90;;;;;;5057584;28;20398;-79
2024/01/05 11:46:03;;;;;;;;;;;7.50;99.90;;;;;;5058732;28;20404;-80
2024/01/05 11:48:46;;;;;;;;;;;7.60;99.90;;;;;;5061544;28;19931;-82
2024/01/05 11:51:13;;;;;;;;;;;7.50;99.90;;;;;;5061567;28;20014;-80
2024/01/05 11:53:39;;;;;;;;;;;7.60;99.90;;;;;;5062748;28;19972;-81
2024/01/05 11:56:07;;;;;;;;;;;7.60;99.90;;;;;;5058700;28;19933;-80
2024/01/05 11:58:35;;;;;;;;;;;7.60;99.90;;;;;;5055121;28;19929;-81
2024/01/05 12:01:04;;;;;;;;;;;7.60;99.90;;;;;;5057107;28;20454;-81
2024/01/05 12:03:30;;;;;;;;;;;7.60;99.90;;;;;;5061228;28;20309;-76
2024/01/05 12:05:58;;;;;;;;;;;7.60;99.90;;;;;;5056644;28;19950;-66
2024/01/05 12:08:24;;;;;;;;;;;7.60;99.90;;;;;;5064940;28;19962;-66
2024/01/05 12:10:53;;;;;;;;;;;7.70;99.90;;;;;;5067825;28;19923;-65
2024/01/05 12:13:22;;;;;;;;;;;7.70;99.90;;;;;;5066319;28;19924;-66
2024/01/05 12:15:52;;;;;;;;;;;7.70;99.90;;;;;;5062367;28;19924;-66
2024/01/05 12:18:25;;;;;;;;;;;7.60;99.90;;;;;;5067065;28;20493;-65
2024/01/05 12:20:53;;;;;;;;;;;7.70;99.90;;;;;;5069442;28;20370;-65
2024/01/05 12:23:20;;;;;;;;;;;7.70;99.90;;;;;;5068934;28;19927;-65
2024/01/05 12:25:57;;;;;;;;;;;7.70;99.90;;;;;;5068165;28;19985;-65
2024/01/05 12:28:23;;;;;;;;;;;7.70;99.90;;;;;;5068323;28;19970;-65
2024/01/05 12:30:50;;;;;;;;;;;7.80;99.90;;;;;;5068071;28;19930;-65
2024/01/05 12:33:17;;;;;;;;;;;7.80;99.90;;;;;;5065913;28;19979;-66
2024/01/05 12:35:45;;;;;;;;;;;7.80;99.90;;;;;;5068766;28;20198;-66
2024/01/05 12:38:11;;;;;;;;;;;7.80;99.90;;;;;;5066462;28;20024;-66
2024/01/05 12:40:38;;;;;;;;;;;7.80;99.90;;;;;;5066219;28;20063;-66
2024/01/05 12:43:05;;;;;;;;;;;7.80;99.90;;;;;;5066437;28;20114;-66
2024/01/05 12:45:31;;;;;;;;;;;7.90;99.90;;;;;;5062399;28;25051;-65
2024/01/05 12:48:09;;;;;;;;;;;7.90;99.90;;;;;;5064178;28;19990;-66
2024/01/05 12:50:36;;;;;;;;;;;7.80;99.90;;;;;;5068959;28;25063;-66
2024/01/05 12:53:16;;;;;;;;;;;7.90;99.90;;;;;;5065065;28;20004;-66
2024/01/05 12:55:42;;;;;;;;;;;7.90;99.90;;;;;;5064305;28;25061;-66
2024/01/05 12:58:09;;;;;;;;;;;7.90;99.90;;;;;;5068088;28;20353;-65
2024/01/05 13:00:40;;;;;;;;;;;7.90;99.90;;;;;;5063562;28;25078;-65
2024/01/05 13:03:08;;;;;;;;;;;7.90;99.90;;;;;;5069528;28;20483;-66
2024/01/05 13:05:34;;;;;;;;;;;7.90;99.90;;;;;;5065456;28;20117;-65
2024/01/05 13:08:01;;;;;;;;;;;8.00;99.90;;;;;;5066319;28;25086;-66
2024/01/05 13:10:29;;;;;;;;;;;8.00;99.90;;;;;;5066232;28;19982;-65
2024/01/05 13:12:55;;;;;;;;;;;8.00;99.90;;;;;;5066291;28;25132;-66
2024/01/05 13:15:22;;;;;;;;;;;8.00;99.90;;;;;;5067043;28;20019;-65
2024/01/05 13:17:50;;;;;;;;;;;8.00;99.90;;;;;;5062347;28;25088;-65
2024/01/05 13:20:18;;;;;;;;;;;8.10;99.90;;;;;;5062709;28;19993;-65
2024/01/05 13:22:45;;;;;;;;;;;8.00;99.90;;;;;;5063272;28;25097;-66
2024/01/05 13:25:12;;;;;;;;;;;8.10;99.90;;;;;;5069473;28;19995;-66
2024/01/05 13:27:40;;;;;;;;;;;8.10;99.90;;;;;;5065734;28;25071;-66
2024/01/05 13:30:08;;;;;;;;;;;8.10;99.90;;;;;;5065318;28;19976;-80
2024/01/05 13:32:35;;;;;;;;;;;8.10;99.90;;;;;;5061704;28;20151;-79
2024/01/05 13:35:01;;;;;;;;;;;8.10;99.90;;;;;;5064031;28;25139;-79
2024/01/05 13:37:28;;;;;;;;;;;8.20;99.90;;;;;;5064507;28;19987;-79
2024/01/05 13:39:54;;;;;;;;;;;8.10;99.90;;;;;;5061084;28;20612;-79
2024/01/05 13:42:21;;;;;;;;;;;8.20;99.90;;;;;;5064728;28;20175;-78
2024/01/05 13:44:49;;;;;;;;;;;8.20;99.90;;;;;;5067670;28;20116;-78
2024/01/05 13:47:16;;;;;;;;;;;8.20;99.90;;;;;;5059908;28;20130;-83
2024/01/05 13:49:43;;;;;;;;;;;8.20;99.90;;;;;;5057210;28;20165;-82
2024/01/05 13:52:14;;;;;;;;;;;8.20;99.90;;;;;;5058651;28;25140;-82
2024/01/05 13:54:41;;;;;;;;;;;8.20;99.90;;;;;;5059343;28;20003;-82
2024/01/05 13:57:11;;;;;;;;;;;8.20;99.90;;;;;;5063777;28;20199;-81
2024/01/05 13:59:38;;;;;;;;;;;8.30;99.90;;;;;;5059255;28;26218;-80
2024/01/05 14:02:07;;;;;;;;;;;8.30;99.90;;;;;;5056769;28;20015;-81
2024/01/05 14:04:34;;;;;;;;;;;8.30;99.90;;;;;;5056168;28;25093;-81
2024/01/05 14:07:01;;;;;;;;;;;8.30;99.90;;;;;;5058535;28;19987;-80
2024/01/05 14:09:28;;;;;;;;;;;8.30;99.90;;;;;;5057902;28;25069;-83
2024/01/05 14:12:11;;;;;;;;;;;;;;;;;;;;;
2024/01/05 14:14:39;;;;;;;;;;;8.30;99.90;;;;;;5069508;28;24699;-84
2024/01/05 14:17:07;;;;;;;;;;;8.30;99.90;;;;;;5057811;28;20007;-81
2024/01/05 14:19:42;;;;;;;;;;;8.30;99.90;;;;;;5060870;28;25075;-79
2024/01/05 14:22:11;;;;;;;;;;;8.30;99.90;;;;;;5057583;28;20482;-80
2024/01/05 14:24:39;;;;;;;;;;;8.30;99.90;;;;;;5060466;28;20514;-79
2024/01/05 14:27:06;;;;;;;;;;;8.30;99.90;;;;;;5061162;28;20129;-82
2024/01/05 14:29:33;;;;;;;;;;;8.30;99.90;;;;;;5063605;28;25082;-83
2024/01/05 14:32:03;;;;;;;;;;;8.30;99.90;;;;;;5059842;28;20033;-81